Time;durP1;ratioP1;P1;durP2;ratioP2;P2;SDS_P1;SDS_P2;PMS_P1;PMS_P2;Temp;Humidity;BMP_temperature;BMP_pressure;BME280_temperature;BME280_humidity;BME280_pressure;Samples;Min_cycle;Max_cycle;Signal;HPM_P1;HPM_P2
2022/10/13 00:01:57;;;;;;;18.40;16.50;;;;;;;;;;5090177;28;20472;-76
2022/10/13 00:04:24;;;;;;;17.23;15.40;;;;;;;;;;5093131;28;20449;-76
2022/10/13 00:06:51;;;;;;;19.30;15.87;;;;;;;;;;5083923;28;20433;-77
2022/10/13 00:09:18;;;;;;;18.33;15.90;;;;;;;;;;5071884;28;20448;-76
2022/10/13 00:11:45;;;;;;;19.60;15.60;;;;;;;;;;5064993;28;20835;-77
2022/10/13 00:14:14;;;;;;;20.87;15.33;;;;;;;;;;5050462;28;20434;-77
2022/10/13 00:16:41;;;;;;;17.63;15.07;;;;;;;;;;5050469;28;20477;-76
2022/10/13 00:19:08;;;;;;;20.13;15.03;;;;;;;;;;5050658;28;20448;-77
2022/10/13 00:21:35;;;;;;;21.47;14.50;;;;;;;;;;5050468;28;20466;-76
2022/10/13 00:24:02;;;;;;;21.30;15.50;;;;;;;;;;5050948;28;20460;-77
2022/10/13 00:26:29;;;;;;;19.00;17.00;;;;;;;;;;5060683;28;20455;-78
2022/10/13 00:28:56;;;;;;;22.40;17.93;;;;;;;;;;5062642;28;20482;-77
2022/10/13 00:31:25;;;;;;;22.37;18.00;;;;;;;;;;5070271;28;20503;-77
2022/10/13 00:33:53;;;;;;;29.83;20.37;;;;;;;;;;5069890;28;20759;-77
2022/10/13 00:36:20;;;;;;;22.43;18.37;;;;;;;;;;5069774;28;20479;-76
2022/10/13 00:38:47;;;;;;;24.60;18.60;;;;;;;;;;5069805;28;20445;-77
2022/10/13 00:41:14;;;;;;;25.53;20.00;;;;;;;;;;5069771;28;20460;-76
2022/10/13 00:43:52;;;;;;;29.47;21.00;;;;;;;;;;5071054;28;20448;-78
2022/10/13 00:46:19;;;;;;;26.03;19.80;;;;;;;;;;5075272;28;20441;-76
2022/10/13 00:48:49;;;;;;;27.37;20.00;;;;;;;;;;5073653;28;20452;-77
2022/10/13 00:51:18;;;;;;;26.00;20.80;;;;;;;;;;5073691;28;20464;-77
2022/10/13 00:53:47;;;;;;;29.80;20.53;;;;;;;;;;5074515;28;20451;-76
2022/10/13 00:56:16;;;;;;;28.10;19.40;;;;;;;;;;5073641;28;20526;-77
2022/10/13 00:58:43;;;;;;;25.00;18.90;;;;;;;;;;5072952;28;20448;-77
2022/10/13 01:01:11;;;;;;;25.70;19.43;;;;;;;;;;5074776;28;20461;-77
2022/10/13 01:03:38;;;;;;;22.53;19.63;;;;;;;;;;5084311;28;20461;-76
2022/10/13 01:06:07;;;;;;;22.40;17.53;;;;;;;;;;5083695;28;20444;-77
2022/10/13 01:08:34;;;;;;;23.17;18.40;;;;;;;;;;5081451;28;20437;-77
2022/10/13 01:11:08;;;;;;;24.60;18.93;;;;;;;;;;5071172;28;20453;-77
2022/10/13 01:13:38;;;;;;;23.00;18.87;;;;;;;;;;5054038;28;20460;-77
2022/10/13 01:16:10;;;;;;;24.23;19.20;;;;;;;;;;5053180;28;20481;-77
2022/10/13 01:18:40;;;;;;;26.37;18.63;;;;;;;;;;5050143;28;21052;-78
2022/10/13 01:21:14;;;;;;;26.03;18.03;;;;;;;;;;5049726;28;20462;-77
2022/10/13 01:23:59;;;;;;;22.10;18.80;;;;;;;;;;5049375;28;20452;-78
2022/10/13 01:26:37;;;;;;;26.23;18.00;;;;;;;;;;5049732;28;20450;-76
2022/10/13 01:29:17;;;;;;;21.70;19.33;;;;;;;;;;5049536;28;20445;-77
2022/10/13 01:31:48;;;;;;;25.80;18.67;;;;;;;;;;5049636;28;20472;-77
2022/10/13 01:34:18;;;;;;;18.90;16.20;;;;;;;;;;5048935;28;20453;-77
2022/10/13 01:36:51;;;;;;;22.60;17.97;;;;;;;;;;5048929;28;20485;-77
2022/10/13 01:39:23;;;;;;;21.60;17.87;;;;;;;;;;5048984;28;20442;-77
2022/10/13 01:41:52;;;;;;;24.40;18.77;;;;;;;;;;5049555;28;21129;-77
2022/10/13 01:44:22;;;;;;;20.20;17.10;;;;;;;;;;5048466;28;20820;-77
2022/10/13 01:46:52;;;;;;;22.70;18.47;;;;;;;;;;5049120;28;20928;-77
2022/10/13 01:49:20;;;;;;;25.03;18.00;;;;;;;;;;5050517;28;20450;-77
2022/10/13 01:51:48;;;;;;;20.47;17.17;;;;;;;;;;5049931;28;20503;-77
2022/10/13 01:54:15;;;;;;;23.37;17.10;;;;;;;;;;5048653;28;20878;-78
2022/10/13 01:56:42;;;;;;;20.13;17.97;;;;;;;;;;5049688;28;20481;-77
2022/10/13 01:59:12;;;;;;;21.20;18.93;;;;;;;;;;5049022;28;20445;-77
2022/10/13 02:01:45;;;;;;;20.90;16.30;;;;;;;;;;5049269;28;20500;-77
2022/10/13 02:04:17;;;;;;;24.40;17.83;;;;;;;;;;5050427;28;20438;-78
2022/10/13 02:06:46;;;;;;;19.23;16.40;;;;;;;;;;5055590;28;20445;-78
2022/10/13 02:09:15;;;;;;;23.90;17.90;;;;;;;;;;5054072;28;20809;-78
2022/10/13 02:11:47;;;;;;;18.37;16.40;;;;;;;;;;5057617;28;20981;-76
2022/10/13 02:14:17;;;;;;;23.10;17.10;;;;;;;;;;5074386;28;20444;-77
2022/10/13 02:16:45;;;;;;;19.87;17.40;;;;;;;;;;5075463;28;20511;-77
2022/10/13 02:19:13;;;;;;;20.50;18.17;;;;;;;;;;5074274;28;21002;-77
2022/10/13 02:21:42;;;;;;;26.53;19.07;;;;;;;;;;5073484;28;20991;-77
2022/10/13 02:24:10;;;;;;;24.77;18.43;;;;;;;;;;5087442;28;20448;-78
2022/10/13 02:26:37;;;;;;;22.73;18.50;;;;;;;;;;5081735;28;20436;-77
2022/10/13 02:29:09;;;;;;;21.60;17.60;;;;;;;;;;5072619;28;20452;-78
2022/10/13 02:31:36;;;;;;;19.40;17.10;;;;;;;;;;5072731;28;20500;-76
2022/10/13 02:34:03;;;;;;;22.00;18.33;;;;;;;;;;5072201;28;20805;-76
2022/10/13 02:36:30;;;;;;;24.10;18.60;;;;;;;;;;5072772;28;20850;-76
2022/10/13 02:38:59;;;;;;;21.00;18.80;;;;;;;;;;5072573;28;20447;-78
2022/10/13 02:41:26;;;;;;;20.63;17.70;;;;;;;;;;5073082;28;20473;-77
2022/10/13 02:43:53;;;;;;;21.10;17.50;;;;;;;;;;5071805;28;20455;-78
2022/10/13 02:46:20;;;;;;;22.20;18.23;;;;;;;;;;5072748;28;20444;-76
2022/10/13 02:48:47;;;;;;;23.70;18.97;;;;;;;;;;5072849;28;20534;-77
2022/10/13 02:51:15;;;;;;;23.43;18.83;;;;;;;;;;5073434;28;20460;-78
2022/10/13 02:53:42;;;;;;;25.33;18.07;;;;;;;;;;5071932;28;20448;-76
2022/10/13 02:56:10;;;;;;;22.23;19.30;;;;;;;;;;5072197;28;20440;-77
2022/10/13 02:58:37;;;;;;;19.87;17.77;;;;;;;;;;5072217;28;20999;-76
2022/10/13 03:01:08;;;;;;;23.23;18.60;;;;;;;;;;5073976;28;20483;-76
2022/10/13 03:03:35;;;;;;;24.00;18.50;;;;;;;;;;5078031;28;20452;-76
2022/10/13 03:06:02;;;;;;;21.53;19.17;;;;;;;;;;5077474;28;20795;-77
2022/10/13 03:08:29;;;;;;;22.97;19.27;;;;;;;;;;5078171;28;20494;-77
2022/10/13 03:10:56;;;;;;;25.13;19.70;;;;;;;;;;5081007;28;20463;-77
2022/10/13 03:13:25;;;;;;;24.30;19.00;;;;;;;;;;5059634;28;20437;-77
2022/10/13 03:15:52;;;;;;;26.73;19.73;;;;;;;;;;5057788;28;20971;-76
2022/10/13 03:18:19;;;;;;;25.53;18.80;;;;;;;;;;5060490;28;20473;-76
2022/10/13 03:20:55;;;;;;;26.80;18.70;;;;;;;;;;5065932;28;20473;-76
2022/10/13 03:23:22;;;;;;;26.57;19.20;;;;;;;;;;5054696;28;20971;-77
2022/10/13 03:25:49;;;;;;;24.43;18.53;;;;;;;;;;5057133;28;20480;-76
2022/10/13 03:28:16;;;;;;;23.40;18.80;;;;;;;;;;5071343;28;20440;-77
2022/10/13 03:30:45;;;;;;;29.73;21.30;;;;;;;;;;5070230;28;20464;-76
2022/10/13 03:33:12;;;;;;;31.87;19.63;;;;;;;;;;5069115;28;20437;-76
2022/10/13 03:35:39;;;;;;;27.80;20.20;;;;;;;;;;5089740;28;20433;-76
2022/10/13 03:38:06;;;;;;;28.37;20.70;;;;;;;;;;5090138;28;20479;-75
2022/10/13 03:40:33;;;;;;;22.80;19.77;;;;;;;;;;5089461;28;20453;-76
2022/10/13 03:43:00;;;;;;;22.03;18.70;;;;;;;;;;5083145;28;20928;-77
2022/10/13 03:45:27;;;;;;;25.50;19.93;;;;;;;;;;5081799;28;20444;-77
2022/10/13 03:47:55;;;;;;;25.47;21.10;;;;;;;;;;5078207;28;20456;-76
2022/10/13 03:50:23;;;;;;;28.60;22.30;;;;;;;;;;5072322;28;20480;-76
2022/10/13 03:52:50;;;;;;;25.63;20.10;;;;;;;;;;5070823;28;20459;-76
2022/10/13 03:55:17;;;;;;;28.33;20.80;;;;;;;;;;5071135;28;20519;-77
2022/10/13 03:57:44;;;;;;;27.77;20.80;;;;;;;;;;5071493;28;20487;-77
2022/10/13 04:00:12;;;;;;;28.40;21.60;;;;;;;;;;5071010;28;20472;-76
2022/10/13 04:02:39;;;;;;;24.87;20.47;;;;;;;;;;5070752;28;20571;-75
2022/10/13 04:05:07;;;;;;;31.20;21.17;;;;;;;;;;5070764;28;20463;-77
2022/10/13 04:07:34;;;;;;;27.37;21.10;;;;;;;;;;5068657;28;20540;-77
2022/10/13 04:10:02;;;;;;;27.53;21.30;;;;;;;;;;5068872;28;20469;-77
2022/10/13 04:12:29;;;;;;;25.30;21.07;;;;;;;;;;5064281;28;20479;-77
2022/10/13 04:14:56;;;;;;;26.10;21.03;;;;;;;;;;5070500;28;20506;-77
2022/10/13 04:17:23;;;;;;;24.37;21.13;;;;;;;;;;5056020;28;21164;-76
2022/10/13 04:19:50;;;;;;;25.77;20.27;;;;;;;;;;5070167;28;20905;-78
2022/10/13 04:22:18;;;;;;;29.67;20.90;;;;;;;;;;5070475;28;20444;-76
2022/10/13 04:24:45;;;;;;;31.30;21.40;;;;;;;;;;5069791;28;20445;-77
2022/10/13 04:27:15;;;;;;;30.03;22.50;;;;;;;;;;5069741;28;20444;-77
2022/10/13 04:29:42;;;;;;;24.20;18.90;;;;;;;;;;5070418;28;20452;-77
2022/10/13 04:32:09;;;;;;;29.20;20.27;;;;;;;;;;5070581;28;20451;-76
2022/10/13 04:34:36;;;;;;;26.47;20.00;;;;;;;;;;5068779;28;20441;-78
2022/10/13 04:37:03;;;;;;;25.47;21.57;;;;;;;;;;5067856;28;20473;-77
2022/10/13 04:39:32;;;;;;;25.40;20.57;;;;;;;;;;5069862;28;20449;-76
2022/10/13 04:41:59;;;;;;;26.20;21.77;;;;;;;;;;5070567;28;20448;-77
2022/10/13 04:44:26;;;;;;;27.50;21.33;;;;;;;;;;5069302;28;20440;-77
2022/10/13 04:46:53;;;;;;;25.63;20.13;;;;;;;;;;5060332;28;20452;-77
2022/10/13 04:49:20;;;;;;;26.67;19.00;;;;;;;;;;5070192;28;20460;-77
2022/10/13 04:51:47;;;;;;;27.50;21.20;;;;;;;;;;5055267;28;20494;-77
2022/10/13 04:54:14;;;;;;;25.20;20.10;;;;;;;;;;5069624;28;20830;-76
2022/10/13 04:56:44;;;;;;;25.17;20.77;;;;;;;;;;5070061;28;20440;-77
2022/10/13 04:59:11;;;;;;;25.17;19.40;;;;;;;;;;5069937;28;20455;-76
2022/10/13 05:01:38;;;;;;;25.03;19.90;;;;;;;;;;5070660;28;21060;-77
2022/10/13 05:04:05;;;;;;;26.40;20.07;;;;;;;;;;5069521;28;20445;-77
2022/10/13 05:06:34;;;;;;;23.43;18.73;;;;;;;;;;5070016;28;20437;-77
2022/10/13 05:09:01;;;;;;;24.37;19.40;;;;;;;;;;5070170;28;20441;-77
2022/10/13 05:11:28;;;;;;;28.00;19.17;;;;;;;;;;5069739;28;20461;-77
2022/10/13 05:13:57;;;;;;;28.43;19.10;;;;;;;;;;5069084;28;20956;-76
2022/10/13 05:16:25;;;;;;;25.27;18.73;;;;;;;;;;5070469;28;20448;-78
2022/10/13 05:18:53;;;;;;;21.37;18.37;;;;;;;;;;5069932;28;20662;-77
2022/10/13 05:21:21;;;;;;;24.50;18.23;;;;;;;;;;5069999;28;21018;-78
2022/10/13 05:23:48;;;;;;;26.13;18.40;;;;;;;;;;5069559;28;20445;-76
2022/10/13 05:26:16;;;;;;;27.53;18.57;;;;;;;;;;5069843;28;20955;-77
2022/10/13 05:28:43;;;;;;;23.77;17.20;;;;;;;;;;5070401;28;20445;-77
2022/10/13 05:31:13;;;;;;;20.87;18.67;;;;;;;;;;5069868;28;20469;-76
2022/10/13 05:33:40;;;;;;;23.97;17.93;;;;;;;;;;5069346;28;20444;-79
2022/10/13 05:36:08;;;;;;;19.80;17.30;;;;;;;;;;5069886;28;20440;-77
2022/10/13 05:38:35;;;;;;;22.10;17.70;;;;;;;;;;5068975;28;20476;-78
2022/10/13 05:41:02;;;;;;;26.43;18.73;;;;;;;;;;5069263;28;20468;-78
2022/10/13 05:43:30;;;;;;;24.27;18.20;;;;;;;;;;5068998;28;20457;-76
2022/10/13 05:45:57;;;;;;;23.57;17.93;;;;;;;;;;5069082;28;20444;-77
2022/10/13 05:48:26;;;;;;;27.73;19.03;;;;;;;;;;5069906;28;20455;-77
2022/10/13 05:50:53;;;;;;;28.43;18.67;;;;;;;;;;5069177;28;20479;-77
2022/10/13 05:53:21;;;;;;;28.03;18.20;;;;;;;;;;5069006;28;20448;-78
2022/10/13 05:55:49;;;;;;;24.37;19.00;;;;;;;;;;5070367;28;20453;-77
2022/10/13 05:58:16;;;;;;;23.40;17.53;;;;;;;;;;5070206;28;20895;-77
2022/10/13 06:00:43;;;;;;;31.00;17.73;;;;;;;;;;5070001;28;20471;-76
2022/10/13 06:03:13;;;;;;;21.83;17.17;;;;;;;;;;5069399;28;20436;-78
2022/10/13 06:05:42;;;;;;;26.63;18.90;;;;;;;;;;5070144;28;20440;-77
2022/10/13 06:08:09;;;;;;;27.73;22.03;;;;;;;;;;5069900;28;20499;-77
2022/10/13 06:10:37;;;;;;;24.33;19.57;;;;;;;;;;5069500;28;20468;-77
2022/10/13 06:13:04;;;;;;;20.00;17.80;;;;;;;;;;5069048;28;20444;-77
2022/10/13 06:15:31;;;;;;;24.50;18.73;;;;;;;;;;5070589;28;20448;-76
2022/10/13 06:17:58;;;;;;;21.50;18.47;;;;;;;;;;5070179;28;20487;-77
2022/10/13 06:20:26;;;;;;;24.47;18.23;;;;;;;;;;5069894;28;20461;-77
2022/10/13 06:22:55;;;;;;;23.37;17.13;;;;;;;;;;5070013;28;20532;-77
2022/10/13 06:25:23;;;;;;;27.23;18.17;;;;;;;;;;5070812;28;20546;-77
2022/10/13 06:27:50;;;;;;;28.80;18.60;;;;;;;;;;5069387;28;20440;-78
2022/10/13 06:30:17;;;;;;;24.90;18.20;;;;;;;;;;5063774;28;20476;-76
2022/10/13 06:32:44;;;;;;;25.60;19.47;;;;;;;;;;5069083;28;20455;-76
2022/10/13 06:35:11;;;;;;;24.83;19.50;;;;;;;;;;5062251;28;20441;-78
2022/10/13 06:37:38;;;;;;;24.00;18.17;;;;;;;;;;5069659;28;20502;-78
2022/10/13 06:40:07;;;;;;;23.53;17.87;;;;;;;;;;5069210;28;20975;-78
2022/10/13 06:42:34;;;;;;;28.10;18.40;;;;;;;;;;5067801;28;20448;-77
2022/10/13 06:45:02;;;;;;;24.47;17.93;;;;;;;;;;5061744;28;20441;-77
2022/10/13 06:47:29;;;;;;;28.40;19.07;;;;;;;;;;5070089;28;20528;-77
2022/10/13 06:49:56;;;;;;;23.40;17.20;;;;;;;;;;5071095;28;20456;-76
2022/10/13 06:52:23;;;;;;;26.30;18.93;;;;;;;;;;5076634;28;20448;-76
2022/10/13 06:54:50;;;;;;;24.23;17.87;;;;;;;;;;5073027;28;20462;-76
2022/10/13 06:57:18;;;;;;;24.87;18.93;;;;;;;;;;5073112;28;20452;-78
2022/10/13 06:59:45;;;;;;;20.30;17.67;;;;;;;;;;5073608;28;20436;-77
2022/10/13 07:02:12;;;;;;;17.90;15.27;;;;;;;;;;5072877;28;20451;-77
2022/10/13 07:04:39;;;;;;;19.40;16.40;;;;;;;;;;5074322;28;20471;-77
2022/10/13 07:07:06;;;;;;;24.47;16.83;;;;;;;;;;5073627;28;20452;-78
2022/10/13 07:09:34;;;;;;;22.30;16.50;;;;;;;;;;5075287;28;20445;-78
2022/10/13 07:12:01;;;;;;;24.33;16.43;;;;;;;;;;5068221;28;20488;-79
2022/10/13 07:14:29;;;;;;;22.53;16.20;;;;;;;;;;5051987;28;20956;-77
2022/10/13 07:16:56;;;;;;;22.97;17.70;;;;;;;;;;5052306;28;20448;-77
2022/10/13 07:19:23;;;;;;;22.70;17.47;;;;;;;;;;5053465;28;20632;-77
2022/10/13 07:21:50;;;;;;;23.37;16.20;;;;;;;;;;5052695;28;20470;-77
2022/10/13 07:24:17;;;;;;;19.43;15.60;;;;;;;;;;5052710;28;20460;-77
2022/10/13 07:26:44;;;;;;;19.70;16.43;;;;;;;;;;5052293;28;20449;-76
2022/10/13 07:29:12;;;;;;;18.23;14.17;;;;;;;;;;5052178;28;20437;-78
2022/10/13 07:31:40;;;;;;;19.33;15.90;;;;;;;;;;5052345;28;20512;-77
2022/10/13 07:34:07;;;;;;;24.30;16.20;;;;;;;;;;5051203;28;20441;-78
2022/10/13 07:36:36;;;;;;;19.70;16.83;;;;;;;;;;5052749;28;20455;-77
2022/10/13 07:39:22;;;;;;;24.60;17.13;;;;;;;;;;5058193;28;20477;-79
2022/10/13 07:41:49;;;;;;;19.10;14.47;;;;;;;;;;5062157;28;20465;-77
2022/10/13 07:44:18;;;;;;;20.20;15.40;;;;;;;;;;5061911;28;20448;-77
2022/10/13 07:46:46;;;;;;;21.40;15.40;;;;;;;;;;5062611;28;20800;-77
2022/10/13 07:49:14;;;;;;;20.93;14.27;;;;;;;;;;5059263;28;20981;-77
2022/10/13 07:51:41;;;;;;;21.87;15.90;;;;;;;;;;5054967;28;20465;-77
2022/10/13 07:54:08;;;;;;;23.50;15.20;;;;;;;;;;5052348;28;20923;-78
2022/10/13 07:56:35;;;;;;;21.67;14.70;;;;;;;;;;5055179;28;20921;-76
2022/10/13 07:59:03;;;;;;;24.47;16.33;;;;;;;;;;5073942;28;20479;-79
2022/10/13 08:01:30;;;;;;;21.80;14.17;;;;;;;;;;5070140;28;20460;-78
2022/10/13 08:03:58;;;;;;;19.63;14.87;;;;;;;;;;5070418;28;20448;-77
2022/10/13 08:06:25;;;;;;;17.67;14.60;;;;;;;;;;5071403;28;20452;-77
2022/10/13 08:08:53;;;;;;;21.60;15.03;;;;;;;;;;5074157;28;20449;-77
2022/10/13 08:11:21;;;;;;;21.50;15.13;;;;;;;;;;5069469;28;20464;-77
2022/10/13 08:13:49;;;;;;;18.23;14.30;;;;;;;;;;5071031;28;20445;-77
2022/10/13 08:16:16;;;;;;;22.20;14.47;;;;;;;;;;5071917;28;20475;-78
2022/10/13 08:18:43;;;;;;;19.00;14.80;;;;;;;;;;5072723;28;20559;-78
2022/10/13 08:21:13;;;;;;;21.57;14.00;;;;;;;;;;5071578;28;20867;-77
2022/10/13 08:23:40;;;;;;;16.07;13.10;;;;;;;;;;5073316;28;20475;-79
2022/10/13 08:26:14;;;;;;;19.50;13.60;;;;;;;;;;5072188;28;20548;-78
2022/10/13 08:28:41;;;;;;;17.17;13.93;;;;;;;;;;5071511;28;20440;-77
2022/10/13 08:31:08;;;;;;;16.73;13.93;;;;;;;;;;5069711;28;20472;-77
2022/10/13 08:33:35;;;;;;;14.70;13.20;;;;;;;;;;5070881;28;20463;-76
2022/10/13 08:36:02;;;;;;;22.97;13.50;;;;;;;;;;5082611;28;20471;-76
2022/10/13 08:38:30;;;;;;;13.27;11.87;;;;;;;;;;5086922;28;20475;-76
2022/10/13 08:40:57;;;;;;;14.67;12.07;;;;;;;;;;5080524;28;20464;-78
2022/10/13 08:43:25;;;;;;;16.87;12.73;;;;;;;;;;5071902;28;20449;-77
2022/10/13 08:45:53;;;;;;;15.97;12.07;;;;;;;;;;5080252;28;20451;-78
2022/10/13 08:48:21;;;;;;;16.27;11.20;;;;;;;;;;5080301;28;20441;-77
2022/10/13 08:50:51;;;;;;;15.07;11.43;;;;;;;;;;5083884;28;20465;-77
2022/10/13 08:53:22;;;;;;;12.40;10.90;;;;;;;;;;5081150;28;20436;-77
2022/10/13 08:55:52;;;;;;;13.17;11.63;;;;;;;;;;5074912;28;20441;-77
2022/10/13 08:58:21;;;;;;;12.60;10.70;;;;;;;;;;5072772;28;20999;-76
2022/10/13 09:00:48;;;;;;;14.20;10.10;;;;;;;;;;5070024;28;20983;-77
2022/10/13 09:03:20;;;;;;;15.90;10.93;;;;;;;;;;5069653;28;20967;-76
2022/10/13 09:05:52;;;;;;;11.70;10.03;;;;;;;;;;5071714;28;20802;-78
2022/10/13 09:08:21;;;;;;;16.23;10.13;;;;;;;;;;5070192;28;20432;-76
2022/10/13 09:10:56;;;;;;;13.53;10.20;;;;;;;;;;5071680;28;21292;-77
2022/10/13 09:13:26;;;;;;;12.17;10.13;;;;;;;;;;5050421;28;20599;-77
2022/10/13 09:15:55;;;;;;;11.93;10.60;;;;;;;;;;5050999;28;20449;-79
2022/10/13 09:18:28;;;;;;;14.43;10.50;;;;;;;;;;5049867;28;20486;-77
2022/10/13 09:21:09;;;;;;;11.33;9.00;;;;;;;;;;5049438;28;20461;-76
2022/10/13 09:23:38;;;;;;;13.97;10.43;;;;;;;;;;5052614;28;20476;-78
2022/10/13 09:26:07;;;;;;;13.90;9.77;;;;;;;;;;5050037;28;20452;-76
2022/10/13 09:28:36;;;;;;;12.47;9.17;;;;;;;;;;5049840;28;20442;-76
2022/10/13 09:31:05;;;;;;;13.00;9.80;;;;;;;;;;5049960;28;20523;-77
2022/10/13 09:33:35;;;;;;;14.60;9.93;;;;;;;;;;5048822;28;20441;-76
2022/10/13 09:36:15;;;;;;;10.37;8.90;;;;;;;;;;5051848;28;20426;-77
2022/10/13 09:38:44;;;;;;;12.53;9.90;;;;;;;;;;5050571;28;20481;-76
2022/10/13 09:41:16;;;;;;;17.00;9.80;;;;;;;;;;5055480;28;20489;-77
2022/10/13 09:43:58;;;;;;;13.13;9.10;;;;;;;;;;5053889;28;20448;-77
2022/10/13 09:46:26;;;;;;;14.27;9.20;;;;;;;;;;5052423;28;20460;-77
2022/10/13 09:48:54;;;;;;;14.47;8.93;;;;;;;;;;5064466;28;20443;-77
2022/10/13 09:51:30;;;;;;;10.20;9.20;;;;;;;;;;5080320;28;20464;-77
2022/10/13 09:53:57;;;;;;;9.50;8.00;;;;;;;;;;5071420;28;20464;-76
2022/10/13 09:56:27;;;;;;;11.67;8.10;;;;;;;;;;5069899;28;20936;-77
2022/10/13 09:59:00;;;;;;;12.47;8.30;;;;;;;;;;5069937;28;20484;-76
2022/10/13 10:01:31;;;;;;;12.77;8.53;;;;;;;;;;5069140;28;21003;-77
2022/10/13 10:03:58;;;;;;;10.47;8.80;;;;;;;;;;5069526;28;20448;-77
2022/10/13 10:06:25;;;;;;;8.70;7.70;;;;;;;;;;5069704;28;20453;-77
2022/10/13 10:08:55;;;;;;;12.80;9.00;;;;;;;;;;5069082;28;20964;-77
2022/10/13 10:11:27;;;;;;;10.37;8.27;;;;;;;;;;5058313;28;20471;-76
2022/10/13 10:13:55;;;;;;;11.37;8.10;;;;;;;;;;5060855;28;20558;-77
2022/10/13 10:16:29;;;;;;;12.00;8.00;;;;;;;;;;5061560;28;20493;-77
2022/10/13 10:18:59;;;;;;;8.50;7.70;;;;;;;;;;5059933;28;20481;-77
2022/10/13 10:21:30;;;;;;;7.90;7.10;;;;;;;;;;5058161;28;20484;-77
2022/10/13 10:24:00;;;;;;;10.83;8.13;;;;;;;;;;5050242;28;20445;-78
2022/10/13 10:26:30;;;;;;;9.53;8.03;;;;;;;;;;5056493;28;20445;-76
2022/10/13 10:29:10;;;;;;;12.07;7.80;;;;;;;;;;5054874;28;20885;-77
2022/10/13 10:31:42;;;;;;;10.10;7.67;;;;;;;;;;5054654;28;20473;-78
2022/10/13 10:34:26;;;;;;;11.70;8.23;;;;;;;;;;5053776;28;20441;-77
2022/10/13 10:36:57;;;;;;;12.70;8.87;;;;;;;;;;5056640;28;20449;-76
2022/10/13 10:39:29;;;;;;;9.03;7.67;;;;;;;;;;5057366;28;20468;-76
2022/10/13 10:41:59;;;;;;;9.93;8.60;;;;;;;;;;5056176;28;20472;-76
2022/10/13 10:44:31;;;;;;;12.70;8.30;;;;;;;;;;5053028;28;20453;-77
2022/10/13 10:47:02;;;;;;;12.53;8.77;;;;;;;;;;5056156;28;20460;-78
2022/10/13 10:49:30;;;;;;;9.50;8.20;;;;;;;;;;5069971;28;20479;-77
2022/10/13 10:51:58;;;;;;;11.20;8.60;;;;;;;;;;5068189;28;20463;-78
2022/10/13 10:54:30;;;;;;;10.30;8.57;;;;;;;;;;5074173;28;20440;-78
2022/10/13 10:57:01;;;;;;;8.30;6.97;;;;;;;;;;5084705;28;20527;-77
2022/10/13 10:59:39;;;;;;;8.90;7.30;;;;;;;;;;5086780;28;20583;-78
2022/10/13 11:02:15;;;;;;;11.70;8.50;;;;;;;;;;5072804;28;20456;-78
2022/10/13 11:04:43;;;;;;;9.73;7.40;;;;;;;;;;5069035;28;20441;-78
2022/10/13 11:07:11;;;;;;;10.77;7.60;;;;;;;;;;5074082;28;20441;-77
2022/10/13 11:09:56;;;;;;;10.03;7.70;;;;;;;;;;5073607;28;20519;-77
2022/10/13 11:12:24;;;;;;;8.63;7.70;;;;;;;;;;5074667;28;20444;-78
2022/10/13 11:15:04;;;;;;;10.53;8.23;;;;;;;;;;5076037;28;20776;-77
2022/10/13 11:17:32;;;;;;;9.10;7.43;;;;;;;;;;5074427;28;20459;-79
2022/10/13 11:20:00;;;;;;;12.37;7.43;;;;;;;;;;5077870;28;20484;-77
2022/10/13 11:22:29;;;;;;;12.73;7.80;;;;;;;;;;5075482;28;20445;-78
2022/10/13 11:24:57;;;;;;;8.80;8.00;;;;;;;;;;5073694;28;20800;-78
2022/10/13 11:27:39;;;;;;;10.13;7.30;;;;;;;;;;5072025;28;21052;-79
2022/10/13 11:30:29;;;;;;;8.63;7.87;;;;;;;;;;5071387;28;20475;-78
2022/10/13 11:32:57;;;;;;;9.50;7.10;;;;;;;;;;5071828;28;20440;-77
2022/10/13 11:35:25;;;;;;;8.17;7.07;;;;;;;;;;5072306;28;20447;-77
2022/10/13 11:38:01;;;;;;;8.57;7.73;;;;;;;;;;5072267;28;20429;-78
2022/10/13 11:40:33;;;;;;;8.77;7.50;;;;;;;;;;5070879;28;20504;-77
2022/10/13 11:43:12;;;;;;;8.70;7.90;;;;;;;;;;5072898;28;20994;-77
2022/10/13 11:45:57;;;;;;;7.80;7.10;;;;;;;;;;5072407;28;20447;-76
2022/10/13 11:48:35;;;;;;;14.17;8.53;;;;;;;;;;5072545;28;20527;-76
2022/10/13 11:51:09;;;;;;;11.00;7.90;;;;;;;;;;5072637;28;20460;-76
2022/10/13 11:53:44;;;;;;;11.87;7.27;;;;;;;;;;5071976;28;20465;-77
2022/10/13 11:56:19;;;;;;;7.73;6.93;;;;;;;;;;5072330;28;20440;-77
2022/10/13 11:58:46;;;;;;;10.10;7.20;;;;;;;;;;5072334;28;20901;-78
2022/10/13 12:01:14;;;;;;;8.50;7.77;;;;;;;;;;5072018;28;20839;-76
2022/10/13 12:03:43;;;;;;;9.93;8.00;;;;;;;;;;5071923;28;20490;-77
2022/10/13 12:06:25;;;;;;;10.50;7.97;;;;;;;;;;5076007;28;20440;-76
2022/10/13 12:08:52;;;;;;;8.90;8.10;;;;;;;;;;5084518;28;20475;-77
2022/10/13 12:11:25;;;;;;;10.57;7.63;;;;;;;;;;5087090;28;20457;-76
2022/10/13 12:13:53;;;;;;;8.43;7.40;;;;;;;;;;5073789;28;20468;-77
2022/10/13 12:16:20;;;;;;;10.50;7.10;;;;;;;;;;5072725;28;20519;-76
2022/10/13 12:18:48;;;;;;;8.67;7.80;;;;;;;;;;5072151;28;20448;-77
2022/10/13 12:21:18;;;;;;;7.70;6.47;;;;;;;;;;5072552;28;20464;-77
2022/10/13 12:23:46;;;;;;;7.27;6.57;;;;;;;;;;5071817;28;20733;-77
2022/10/13 12:26:16;;;;;;;10.27;7.10;;;;;;;;;;5072350;28;20453;-77
2022/10/13 12:28:48;;;;;;;7.43;6.70;;;;;;;;;;5071807;28;20476;-77
2022/10/13 12:31:20;;;;;;;7.20;6.10;;;;;;;;;;5072247;28;20476;-76
2022/10/13 12:33:54;;;;;;;8.23;6.33;;;;;;;;;;5071443;28;20448;-77
2022/10/13 12:36:22;;;;;;;6.53;5.43;;;;;;;;;;5071585;28;20940;-77
2022/10/13 12:38:50;;;;;;;6.47;5.17;;;;;;;;;;5071643;28;20449;-76
2022/10/13 12:41:19;;;;;;;6.10;5.50;;;;;;;;;;5071231;28;20492;-77
2022/10/13 12:43:46;;;;;;;7.23;5.23;;;;;;;;;;5070274;28;20451;-76
2022/10/13 12:46:13;;;;;;;10.90;5.60;;;;;;;;;;5070929;28;20453;-76
2022/10/13 12:48:43;;;;;;;8.00;5.67;;;;;;;;;;5070010;28;20464;-77
2022/10/13 12:51:15;;;;;;;6.10;5.47;;;;;;;;;;5070648;28;20898;-78
2022/10/13 12:53:44;;;;;;;5.80;5.20;;;;;;;;;;5069923;28;20447;-76
2022/10/13 12:56:19;;;;;;;6.97;4.80;;;;;;;;;;5070306;28;20445;-77
2022/10/13 12:58:46;;;;;;;7.60;5.23;;;;;;;;;;5070690;28;20458;-77
2022/10/13 13:01:26;;;;;;;6.03;5.37;;;;;;;;;;5070915;28;20480;-76
2022/10/13 13:03:57;;;;;;;5.63;5.03;;;;;;;;;;5070181;28;21006;-77
2022/10/13 13:06:31;;;;;;;10.10;5.30;;;;;;;;;;5070594;28;20474;-77
2022/10/13 13:09:08;;;;;;;6.00;4.73;;;;;;;;;;5070451;28;20451;-76
2022/10/13 13:11:37;;;;;;;6.70;4.93;;;;;;;;;;5067331;28;20468;-76
2022/10/13 13:14:23;;;;;;;7.07;5.10;;;;;;;;;;5049738;28;20449;-78
2022/10/13 13:17:02;;;;;;;5.47;4.97;;;;;;;;;;5050187;28;20438;-77
2022/10/13 13:19:31;;;;;;;5.60;4.67;;;;;;;;;;5050355;28;20525;-77
2022/10/13 13:22:00;;;;;;;5.60;4.83;;;;;;;;;;5050812;28;20470;-77
2022/10/13 13:24:27;;;;;;;8.00;5.10;;;;;;;;;;5049591;28;20453;-77
2022/10/13 13:26:54;;;;;;;6.37;5.53;;;;;;;;;;5050557;28;20453;-78
2022/10/13 13:29:21;;;;;;;7.70;4.60;;;;;;;;;;5050259;28;20959;-76
2022/10/13 13:31:48;;;;;;;6.47;5.30;;;;;;;;;;5050825;28;20466;-77
2022/10/13 13:34:15;;;;;;;6.03;5.13;;;;;;;;;;5050111;28;20503;-78
2022/10/13 13:36:42;;;;;;;5.37;4.93;;;;;;;;;;5050840;28;20441;-77
2022/10/13 13:39:14;;;;;;;7.87;6.10;;;;;;;;;;5050721;28;20445;-77
2022/10/13 13:41:41;;;;;;;6.90;5.63;;;;;;;;;;5050463;28;20456;-77
2022/10/13 13:44:08;;;;;;;9.63;5.80;;;;;;;;;;5050096;28;20777;-77
2022/10/13 13:46:35;;;;;;;6.20;5.43;;;;;;;;;;5050544;28;20448;-77
2022/10/13 13:49:02;;;;;;;6.67;5.27;;;;;;;;;;5050466;28;20457;-78
2022/10/13 13:51:29;;;;;;;9.97;5.87;;;;;;;;;;5050359;28;20461;-76
2022/10/13 13:53:57;;;;;;;7.00;5.87;;;;;;;;;;5049470;28;20446;-77
2022/10/13 13:56:25;;;;;;;6.80;5.77;;;;;;;;;;5049948;28;20830;-78
2022/10/13 13:58:52;;;;;;;11.30;5.67;;;;;;;;;;5049898;28;20960;-78
2022/10/13 14:01:19;;;;;;;5.17;4.70;;;;;;;;;;5053457;28;21027;-77
2022/10/13 14:03:46;;;;;;;7.57;5.53;;;;;;;;;;5053602;28;20445;-76
2022/10/13 14:06:17;;;;;;;7.60;5.77;;;;;;;;;;5054141;28;20443;-76
2022/10/13 14:08:44;;;;;;;6.13;5.50;;;;;;;;;;5053800;28;20957;-77
2022/10/13 14:11:12;;;;;;;9.07;6.23;;;;;;;;;;5054413;28;20467;-76
2022/10/13 14:13:40;;;;;;;6.40;5.80;;;;;;;;;;5073183;28;20453;-78
2022/10/13 14:16:07;;;;;;;8.30;6.27;;;;;;;;;;5073986;28;20440;-77
2022/10/13 14:18:34;;;;;;;7.57;5.67;;;;;;;;;;5073792;28;20463;-76
2022/10/13 14:21:05;;;;;;;10.03;6.80;;;;;;;;;;5073467;28;20491;-77
2022/10/13 14:23:32;;;;;;;7.80;6.50;;;;;;;;;;5073881;28;20555;-78
2022/10/13 14:25:59;;;;;;;7.20;6.17;;;;;;;;;;5073491;28;20940;-77
2022/10/13 14:28:26;;;;;;;8.37;7.33;;;;;;;;;;5073399;28;20824;-78
2022/10/13 14:30:55;;;;;;;6.87;6.03;;;;;;;;;;5073141;28;20457;-78
2022/10/13 14:33:22;;;;;;;11.90;7.03;;;;;;;;;;5072521;28;20452;-76
2022/10/13 14:35:49;;;;;;;9.37;7.77;;;;;;;;;;5073597;28;20472;-79